createdAt,value
2023-05-14T00:00:13.706Z,7.64286
2023-05-14T00:01:13.739Z,8.21429
2023-05-14T00:02:13.856Z,7.64286
2023-05-14T00:03:13.978Z,7.35714
2023-05-14T00:04:13.864Z,7.92857
2023-05-14T00:05:13.840Z,7.85714
2023-05-14T00:06:13.873Z,8.71429
2023-05-14T00:07:13.921Z,7.85714
2023-05-14T00:08:13.948Z,8.71429
2023-05-14T00:09:13.937Z,8.14286
2023-05-14T00:10:13.971Z,8.5
2023-05-14T00:11:13.989Z,8
2023-05-14T00:12:14.010Z,8.14286
2023-05-14T00:13:14.069Z,8.5
2023-05-14T00:14:14.060Z,8.71429
2023-05-14T00:15:14.087Z,8.14286
2023-05-14T00:16:14.130Z,8
2023-05-14T00:17:14.097Z,7.92857
2023-05-14T00:18:14.130Z,8.42857
2023-05-14T00:19:14.180Z,7.92857
2023-05-14T00:20:14.146Z,7.71429
2023-05-14T00:21:14.161Z,7.71429
2023-05-14T00:22:14.169Z,8.21429
2023-05-14T00:23:14.196Z,8
2023-05-14T00:24:14.235Z,7.42857
2023-05-14T00:25:14.231Z,7.92857
2023-05-14T00:26:14.268Z,7.71429
2023-05-14T00:27:14.296Z,7.92857
2023-05-14T00:28:14.322Z,7.85714
2023-05-14T00:29:14.369Z,7.5
2023-05-14T00:30:14.381Z,7.42857
2023-05-14T00:31:14.445Z,7.21429
2023-05-14T00:32:14.423Z,7.92857
2023-05-14T00:33:14.451Z,7.92857
2023-05-14T00:34:14.496Z,8
2023-05-14T00:35:14.513Z,7.85714
2023-05-14T00:36:14.536Z,8.42857
2023-05-14T00:37:14.544Z,7.64286
2023-05-14T00:38:14.576Z,7.85714
2023-05-14T00:39:14.598Z,8.21429
2023-05-14T00:40:14.624Z,7.71429
2023-05-14T00:41:14.653Z,7.35714
2023-05-14T00:42:14.675Z,7
2023-05-14T00:43:14.676Z,8.42857
2023-05-14T00:44:14.697Z,7.71429
2023-05-14T00:45:14.710Z,7.5
2023-05-14T00:46:14.790Z,7.42857
2023-05-14T00:47:14.774Z,7.42857
2023-05-14T00:48:14.779Z,7.92857
2023-05-14T00:49:14.779Z,7.92857
2023-05-14T00:50:14.782Z,8.71429
2023-05-14T00:51:14.802Z,7.21429
2023-05-14T00:52:14.818Z,8.35714
2023-05-14T00:53:14.858Z,8.14286
2023-05-14T00:54:14.880Z,7.64286
2023-05-14T00:55:14.910Z,8
2023-05-14T00:56:14.934Z,8.14286
2023-05-14T00:57:14.982Z,8.35714
2023-05-14T00:58:14.995Z,8.14286
2023-05-14T00:59:15.029Z,8
2023-05-14T01:00:15.055Z,8.35714
2023-05-14T01:01:15.131Z,7.85714
2023-05-14T01:02:15.100Z,8.14286
2023-05-14T01:03:15.209Z,8.5
2023-05-14T01:04:15.139Z,9.14286
2023-05-14T01:05:15.176Z,8.35714
2023-05-14T01:06:15.184Z,8.14286
2023-05-14T01:07:15.224Z,8.92857
2023-05-14T01:08:15.230Z,8.42857
2023-05-14T01:09:15.247Z,8.42857
2023-05-14T01:10:15.280Z,8.35714
2023-05-14T01:11:15.304Z,8.14286
2023-05-14T01:12:15.337Z,8.35714
2023-05-14T01:13:15.344Z,7.71429
2023-05-14T01:14:15.367Z,8
2023-05-14T01:15:15.459Z,7.85714
2023-05-14T01:16:15.435Z,8
2023-05-14T01:17:15.442Z,8.14286
2023-05-14T01:18:15.439Z,7.92857
2023-05-14T01:19:15.502Z,8.64286
2023-05-14T01:20:15.443Z,8.42857
2023-05-14T01:21:15.462Z,8
2023-05-14T01:22:15.493Z,8
2023-05-14T01:23:15.523Z,7.42857
2023-05-14T01:24:15.575Z,8.21429
2023-05-14T01:25:15.565Z,7.92857
2023-05-14T01:26:15.623Z,8.35714
2023-05-14T01:27:15.621Z,8.35714
2023-05-14T01:28:15.648Z,7.85714
2023-05-14T01:29:15.673Z,8.14286
2023-05-14T01:30:15.700Z,7.85714
2023-05-14T01:31:15.738Z,7.85714
2023-05-14T01:32:15.746Z,8.35714
2023-05-14T01:33:15.770Z,7.92857
2023-05-14T01:34:15.799Z,8.35714
2023-05-14T01:35:15.813Z,8
2023-05-14T01:36:15.845Z,8.35714
2023-05-14T01:37:15.838Z,7.85714
2023-05-14T01:38:15.858Z,8.35714
2023-05-14T01:39:15.902Z,8.35714
2023-05-14T01:40:15.903Z,7.92857
2023-05-14T01:41:15.940Z,8.21429
2023-05-14T01:42:15.947Z,7.92857
2023-05-14T01:43:15.976Z,8.14286
2023-05-14T01:44:15.978Z,7.85714
2023-05-14T01:45:15.983Z,8.35714
2023-05-14T01:46:16.021Z,8.14286
2023-05-14T01:47:16.022Z,8.35714
2023-05-14T01:48:16.038Z,8.5
2023-05-14T01:49:16.075Z,8.14286
2023-05-14T01:50:16.092Z,8.14286
2023-05-14T01:51:16.108Z,8.64286
2023-05-14T01:52:16.138Z,7.5
2023-05-14T01:53:16.172Z,8.14286
2023-05-14T01:54:16.237Z,8.42857
2023-05-14T01:55:16.213Z,7.5
2023-05-14T01:56:16.268Z,8.21429
2023-05-14T01:57:16.276Z,7.92857
2023-05-14T01:58:16.305Z,8.85714
2023-05-14T01:59:16.331Z,8.21429
2023-05-14T02:00:16.350Z,7.92857
2023-05-14T02:01:16.445Z,7.71429
2023-05-14T02:02:16.410Z,7.92857
2023-05-14T02:03:16.411Z,8.35714
2023-05-14T02:04:16.477Z,8.21429
2023-05-14T02:05:16.467Z,8.85714
2023-05-14T02:06:16.478Z,8
2023-05-14T02:07:16.510Z,7.85714
2023-05-14T02:08:16.525Z,8.35714
2023-05-14T02:09:16.554Z,8.64286
2023-05-14T02:10:16.558Z,8.14286
2023-05-14T02:11:16.584Z,9.14286
2023-05-14T02:12:16.608Z,8.64286
2023-05-14T02:13:16.619Z,7.92857
2023-05-14T02:14:16.672Z,8.42857
2023-05-14T02:15:16.660Z,8.42857
2023-05-14T02:16:16.691Z,7.5
2023-05-14T02:17:16.671Z,8.42857
2023-05-14T02:18:16.684Z,8.35714
2023-05-14T02:19:16.761Z,8.71429
2023-05-14T02:20:16.737Z,8.92857
2023-05-14T02:21:16.746Z,8.14286
2023-05-14T02:22:16.772Z,8.14286
2023-05-14T02:23:16.800Z,8.35714
2023-05-14T02:24:16.825Z,8.64286
2023-05-14T02:25:16.897Z,8.42857
2023-05-14T02:26:16.876Z,8.35714
2023-05-14T02:27:16.913Z,8.5
2023-05-14T02:28:16.925Z,8.5
2023-05-14T02:29:16.975Z,9.14286
2023-05-14T02:30:16.979Z,9.14286
2023-05-14T02:31:17.034Z,9.5
2023-05-14T02:32:17.095Z,9.14286
2023-05-14T02:33:17.160Z,9.5
2023-05-14T02:34:17.098Z,9.85714
2023-05-14T02:35:17.138Z,9.35714
2023-05-14T02:36:17.136Z,9.85714
2023-05-14T02:37:17.180Z,10.4286
2023-05-14T02:38:17.178Z,10.2143
2023-05-14T02:39:17.199Z,9.85714
2023-05-14T02:40:17.223Z,9.92857
2023-05-14T02:41:17.260Z,9.71429
2023-05-14T02:42:17.254Z,9.71429
2023-05-14T02:43:17.287Z,10.5
2023-05-14T02:44:17.323Z,10.4286
2023-05-14T02:45:17.320Z,10.5
2023-05-14T02:46:17.383Z,10.2143
2023-05-14T02:47:17.342Z,10.1429
2023-05-14T02:48:17.351Z,10.1429
2023-05-14T02:49:17.393Z,9.64286
2023-05-14T02:50:17.409Z,9.71429
2023-05-14T02:51:17.405Z,9.85714
2023-05-14T02:52:17.423Z,9.5
2023-05-14T02:53:17.462Z,9.42857
2023-05-14T02:54:17.491Z,9.14286
2023-05-14T02:55:17.528Z,9
2023-05-14T02:56:17.530Z,9.14286
2023-05-14T02:57:17.551Z,9.42857
2023-05-14T02:58:17.565Z,9.92857
2023-05-14T02:59:17.608Z,9.85714
2023-05-14T03:00:17.627Z,9.21429
2023-05-14T03:01:17.756Z,8.92857
2023-05-14T03:02:17.862Z,9.71429
2023-05-14T03:03:17.733Z,9.14286
2023-05-14T03:04:17.733Z,9.71429
2023-05-14T03:05:17.747Z,9.21429
2023-05-14T03:06:17.789Z,9
2023-05-14T03:07:17.813Z,9
2023-05-14T03:08:17.826Z,9.35714
2023-05-14T03:09:17.845Z,9.85714
2023-05-14T03:10:17.880Z,9.21429
2023-05-14T03:11:17.902Z,9.85714
2023-05-14T03:12:17.904Z,9.21429
2023-05-14T03:13:17.952Z,10.6429
2023-05-14T03:14:17.931Z,9.5
2023-05-14T03:15:17.947Z,10.4286
2023-05-14T03:16:17.975Z,11
2023-05-14T03:17:17.969Z,9.5
2023-05-14T03:18:17.988Z,9.5
2023-05-14T03:19:17.994Z,10.3571
2023-05-14T03:20:18.023Z,10.5
2023-05-14T03:21:18.046Z,10.1429
2023-05-14T03:22:18.072Z,11.3571
2023-05-14T03:23:18.092Z,11
2023-05-14T03:24:18.116Z,11.5
2023-05-14T03:25:18.145Z,11.1429
2023-05-14T03:26:18.166Z,10.5
2023-05-14T03:27:18.185Z,11.1429
2023-05-14T03:28:18.215Z,10.6429
2023-05-14T03:29:18.251Z,10.9286
2023-05-14T03:30:18.259Z,11
2023-05-14T03:31:18.360Z,11.2143
2023-05-14T03:32:18.313Z,11.3571
2023-05-14T03:33:18.333Z,11.3571
2023-05-14T03:34:18.353Z,11.1429
2023-05-14T03:35:18.373Z,10.1429
2023-05-14T03:36:18.391Z,11.3571
2023-05-14T03:37:18.406Z,10.2143
2023-05-14T03:38:18.416Z,10.8571
2023-05-14T03:39:18.433Z,10.3571
2023-05-14T03:40:18.447Z,10.4286
2023-05-14T03:41:18.465Z,10.9286
2023-05-14T03:42:18.475Z,11.2143
2023-05-14T03:43:18.494Z,10.8571
2023-05-14T03:44:18.498Z,10.8571
2023-05-14T03:45:18.568Z,10.3571
2023-05-14T03:46:18.562Z,10.7143
2023-05-14T03:47:18.590Z,10.7143
2023-05-14T03:48:18.692Z,10.6429
2023-05-14T03:49:18.652Z,10.6429
2023-05-14T03:50:18.676Z,10
2023-05-14T03:51:18.692Z,9.92857
2023-05-14T03:52:18.726Z,11
2023-05-14T03:53:18.750Z,10.7143
2023-05-14T03:54:18.786Z,10.7143
2023-05-14T03:55:18.806Z,10.9286
2023-05-14T03:56:18.827Z,11.3571
2023-05-14T03:57:18.851Z,10.6429
2023-05-14T03:58:18.870Z,10.3571
2023-05-14T03:59:18.914Z,10.9286
2023-05-14T04:00:18.926Z,10.2143
2023-05-14T04:01:18.933Z,10.1429
2023-05-14T04:02:19.040Z,10.9286
2023-05-14T04:03:19.090Z,10.3571
2023-05-14T04:04:19.053Z,11
2023-05-14T04:05:19.033Z,9.92857
2023-05-14T04:06:19.050Z,10.2143
2023-05-14T04:07:19.051Z,10.2143
2023-05-14T04:08:19.076Z,10.8571
2023-05-14T04:09:19.101Z,10.9286
2023-05-14T04:10:19.113Z,10.1429
2023-05-14T04:11:19.106Z,10.1429
2023-05-14T04:12:19.118Z,10.5
2023-05-14T04:13:19.140Z,10
2023-05-14T04:14:19.182Z,11.1429
2023-05-14T04:15:19.196Z,10.5
2023-05-14T04:16:19.239Z,10.1429
2023-05-14T04:17:19.240Z,10.7143
2023-05-14T04:18:19.298Z,10.7143
2023-05-14T04:19:19.347Z,11.4286
2023-05-14T04:20:19.333Z,10.5
2023-05-14T04:21:19.353Z,11.1429
2023-05-14T04:22:19.378Z,10.2143
2023-05-14T04:23:19.402Z,10.5
2023-05-14T04:24:19.428Z,10.7143
2023-05-14T04:25:19.457Z,11.2143
2023-05-14T04:26:19.481Z,11.7143
2023-05-14T04:27:19.511Z,10.8571
2023-05-14T04:28:19.592Z,11.1429
2023-05-14T04:29:19.555Z,11.3571
2023-05-14T04:30:19.572Z,11.2143
2023-05-14T04:31:19.641Z,10.6429
2023-05-14T04:32:19.621Z,10.6429
2023-05-14T04:33:19.671Z,10.7143
2023-05-14T04:34:19.688Z,11
2023-05-14T04:35:20.170Z,10.8571
2023-05-14T04:36:19.704Z,11.7143
2023-05-14T04:37:19.735Z,11.5
2023-05-14T04:38:19.731Z,11.4286
2023-05-14T04:39:19.778Z,12.6429
2023-05-14T04:40:19.784Z,11.7143
2023-05-14T04:41:19.798Z,11.6429
2023-05-14T04:42:19.795Z,12.6429
2023-05-14T04:43:19.808Z,12.2143
2023-05-14T04:44:19.814Z,12.6429
2023-05-14T04:45:19.869Z,12.5
2023-05-14T04:46:19.938Z,12.1429
2023-05-14T04:47:19.944Z,12.9286
2023-05-14T04:48:19.936Z,12.9286
2023-05-14T04:49:19.966Z,12.4286
2023-05-14T04:50:19.998Z,13.1429
2023-05-14T04:51:20.031Z,12.6429
2023-05-14T04:52:20.030Z,13.2143
2023-05-14T04:53:20.051Z,12.9286
2023-05-14T04:54:20.118Z,12.6429
2023-05-14T04:55:20.094Z,13
2023-05-14T04:56:20.113Z,13.2143
2023-05-14T04:57:20.141Z,12.8571
2023-05-14T04:58:20.161Z,11.9286
2023-05-14T04:59:20.181Z,12.3571
2023-05-14T05:00:20.196Z,12.2143
2023-05-14T05:01:20.296Z,12.1429
2023-05-14T05:02:20.262Z,11.6429
2023-05-14T05:03:20.348Z,12.5
2023-05-14T05:04:20.365Z,12.8571
2023-05-14T05:05:20.330Z,12.6429
2023-05-14T05:06:20.364Z,12
2023-05-14T05:07:20.365Z,12.4286
2023-05-14T05:08:20.381Z,12.1429
2023-05-14T05:09:20.394Z,12.2143
2023-05-14T05:10:20.429Z,12.8571
2023-05-14T05:11:20.433Z,12.6429
2023-05-14T05:12:20.455Z,12.3571
2023-05-14T05:13:20.451Z,14.1429
2023-05-14T05:14:20.501Z,12.9286
2023-05-14T05:15:20.482Z,12.2143
2023-05-14T05:16:20.568Z,13.4286
2023-05-14T05:17:20.562Z,12.5
2023-05-14T05:18:20.572Z,12.7143
2023-05-14T05:19:26.542Z,13.1429
2023-05-14T05:20:20.686Z,12.9286
2023-05-14T05:21:20.647Z,12.5
2023-05-14T05:22:20.690Z,12.7143
2023-05-14T05:23:20.712Z,12.6429
2023-05-14T05:24:20.737Z,13.1429
2023-05-14T05:25:20.792Z,12.6429
2023-05-14T05:26:20.796Z,13.1429
2023-05-14T05:27:20.789Z,12.9286
2023-05-14T05:28:20.818Z,12.9286
2023-05-14T05:29:20.844Z,12.5
2023-05-14T05:30:20.875Z,13
2023-05-14T05:31:20.949Z,13.7143
2023-05-14T05:32:20.950Z,12.5
2023-05-14T05:33:20.929Z,13.8571
2023-05-14T05:34:20.961Z,13.1429
2023-05-14T05:35:20.983Z,12.5
2023-05-14T05:36:20.995Z,13.3571
2023-05-14T05:37:21.006Z,12.1429
2023-05-14T05:38:21.037Z,10.7143
2023-05-14T05:39:21.061Z,10.2143
2023-05-14T05:40:21.119Z,10.7143
2023-05-14T05:41:21.078Z,9.14286
2023-05-14T05:42:21.092Z,9.35714
2023-05-14T05:43:21.103Z,10.3571
2023-05-14T05:44:21.116Z,8.14286
2023-05-14T05:45:21.159Z,8.64286
2023-05-14T05:46:21.199Z,8.42857
2023-05-14T05:47:21.279Z,9
2023-05-14T05:48:21.217Z,8.14286
2023-05-14T05:49:21.241Z,8.35714
2023-05-14T05:50:21.488Z,8.64286
2023-05-14T05:51:21.309Z,8.35714
2023-05-14T05:52:21.314Z,8.64286
2023-05-14T05:53:21.337Z,7.92857
2023-05-14T05:54:21.353Z,7.85714
2023-05-14T05:55:21.377Z,8.14286
2023-05-14T05:56:21.397Z,7.85714
2023-05-14T05:57:21.432Z,7.85714
2023-05-14T05:58:21.449Z,7.64286
2023-05-14T05:59:21.461Z,7.21429
2023-05-14T06:00:21.683Z,7.42857
2023-05-14T06:01:21.496Z,7.42857
2023-05-14T06:02:21.573Z,6.92857
2023-05-14T06:03:21.599Z,6.5
2023-05-14T06:04:21.559Z,6.85714
2023-05-14T06:05:21.659Z,8.14286
2023-05-14T06:06:21.596Z,7.42857
2023-05-14T06:07:21.597Z,6.92857
2023-05-14T06:08:21.606Z,7.21429
2023-05-14T06:09:21.609Z,6.64286
2023-05-14T06:10:21.854Z,6.85714
2023-05-14T06:11:21.707Z,7
2023-05-14T06:12:21.690Z,6.64286
2023-05-14T06:13:21.720Z,7.21429
2023-05-14T06:14:21.754Z,6.85714
2023-05-14T06:15:21.797Z,6.64286
2023-05-14T06:16:21.822Z,6.71429
2023-05-14T06:17:21.855Z,6.42857
2023-05-14T06:18:21.834Z,6.92857
2023-05-14T06:19:21.862Z,6.64286
2023-05-14T06:20:22.120Z,6.71429
2023-05-14T06:21:21.888Z,6.64286
2023-05-14T06:22:21.922Z,6.64286
2023-05-14T06:23:21.932Z,6.35714
2023-05-14T06:24:21.961Z,6.85714
2023-05-14T06:25:21.978Z,6.64286
2023-05-14T06:26:21.992Z,6.35714
2023-05-14T06:27:22.037Z,6.85714
2023-05-14T06:28:22.034Z,6.92857
2023-05-14T06:29:22.052Z,7.14286
2023-05-14T06:30:22.259Z,6.42857
2023-05-14T06:31:22.149Z,6.21429
2023-05-14T06:32:22.216Z,6.21429
2023-05-14T06:33:22.180Z,6.42857
2023-05-14T06:34:22.128Z,6.42857
2023-05-14T06:35:22.145Z,6.14286
2023-05-14T06:36:22.212Z,5.85714
2023-05-14T06:37:22.253Z,6.14286
2023-05-14T06:38:22.220Z,6.71429
2023-05-14T06:39:22.223Z,6.42857
2023-05-14T06:40:22.593Z,6.21429
2023-05-14T06:41:22.274Z,5.85714
2023-05-14T06:42:22.285Z,6.14286
2023-05-14T06:43:22.310Z,6.35714
2023-05-14T06:44:22.334Z,6.14286
2023-05-14T06:45:22.364Z,5.85714
2023-05-14T06:46:22.390Z,5.92857
2023-05-14T06:47:22.506Z,6
2023-05-14T06:48:22.527Z,5.64286
2023-05-14T06:49:22.463Z,5.71429
2023-05-14T06:50:22.740Z,6.14286
2023-05-14T06:51:22.485Z,6.21429
2023-05-14T06:52:22.515Z,5.71429
2023-05-14T06:53:22.531Z,5.64286
2023-05-14T06:54:22.564Z,5.42857
2023-05-14T06:55:22.552Z,5.64286
2023-05-14T06:56:22.584Z,5.21429
2023-05-14T06:57:22.593Z,5.64286
2023-05-14T06:58:22.610Z,5.64286
2023-05-14T06:59:22.623Z,5.5
2023-05-14T07:00:22.880Z,5.71429
2023-05-14T07:01:22.698Z,5.35714
2023-05-14T07:02:22.688Z,5.92857
2023-05-14T07:03:22.685Z,5.14286
2023-05-14T07:04:22.737Z,5.5
2023-05-14T07:05:22.736Z,6.21429
2023-05-14T07:06:22.753Z,5.71429
2023-05-14T07:07:22.782Z,5.21429
2023-05-14T07:08:22.821Z,5.92857
2023-05-14T07:09:22.839Z,5.71429
2023-05-14T07:10:23.165Z,5.71429
2023-05-14T07:11:22.908Z,5.64286
2023-05-14T07:12:22.927Z,5.71429
2023-05-14T07:13:22.944Z,5.71429
2023-05-14T07:14:22.974Z,5.92857
2023-05-14T07:15:22.988Z,5.71429
2023-05-14T07:16:23.025Z,5.92857
2023-05-14T07:17:23.164Z,5.71429
2023-05-14T07:18:23.065Z,5.92857
2023-05-14T07:19:23.089Z,6
2023-05-14T07:20:23.374Z,5.71429
2023-05-14T07:21:23.142Z,5.64286
2023-05-14T07:22:23.231Z,5.92857
2023-05-14T07:23:23.199Z,5
2023-05-14T07:24:23.215Z,5.85714
2023-05-14T07:25:23.238Z,5.21429
2023-05-14T07:26:23.263Z,5.21429
2023-05-14T07:27:23.294Z,5.42857
2023-05-14T07:28:23.317Z,5
2023-05-14T07:29:23.330Z,5.42857
2023-05-14T07:30:23.580Z,5
2023-05-14T07:31:23.511Z,5.21429
2023-05-14T07:32:23.392Z,5.35714
2023-05-14T07:33:23.405Z,5.71429
2023-05-14T07:34:23.424Z,5.42857
2023-05-14T07:35:23.442Z,5.35714
2023-05-14T07:36:23.468Z,5.21429
2023-05-14T07:37:24.248Z,5.71429
2023-05-14T07:38:23.478Z,5.42857
2023-05-14T07:39:23.514Z,5.42857
2023-05-14T07:40:23.681Z,5.21429
2023-05-14T07:41:23.552Z,5.21429
2023-05-14T07:42:34.379Z,6
2023-05-14T07:43:23.647Z,5.21429
2023-05-14T07:44:23.649Z,5.21429
2023-05-14T07:45:23.683Z,5.21429
2023-05-14T07:46:23.695Z,5.64286
2023-05-14T07:47:23.801Z,5.21429
2023-05-14T07:48:23.840Z,5.14286
2023-05-14T07:49:23.786Z,5.35714
2023-05-14T07:50:24.019Z,5.5
2023-05-14T07:51:23.836Z,5.42857
2023-05-14T07:52:23.862Z,5.21429
2023-05-14T07:53:23.882Z,5.5
2023-05-14T07:54:23.918Z,5.14286
2023-05-14T07:55:23.951Z,5
2023-05-14T07:56:23.957Z,5.14286
2023-05-14T07:57:23.991Z,5.21429
2023-05-14T07:58:24.031Z,5.21429
2023-05-14T07:59:24.032Z,5.35714
2023-05-14T08:00:24.328Z,5
2023-05-14T08:01:24.067Z,5.21429
2023-05-14T08:02:24.172Z,5.5
2023-05-14T08:03:24.216Z,5
2023-05-14T08:04:24.166Z,5.14286
2023-05-14T08:05:24.148Z,4.92857
2023-05-14T08:06:24.167Z,5.64286
2023-05-14T08:07:24.184Z,5
2023-05-14T08:08:24.195Z,4.92857
2023-05-14T08:09:24.213Z,5.21429
2023-05-14T08:10:24.533Z,5.21429
2023-05-14T08:11:24.281Z,4.92857
2023-05-14T08:12:24.262Z,5
2023-05-14T08:13:24.273Z,5.14286
2023-05-14T08:14:24.301Z,5.21429
2023-05-14T08:15:27.090Z,5.14286
2023-05-14T08:16:24.377Z,4.64286
2023-05-14T08:17:24.411Z,5.14286
2023-05-14T08:18:24.411Z,4.71429
2023-05-14T08:19:24.449Z,5.14286
2023-05-14T08:20:24.741Z,5
2023-05-14T08:21:24.474Z,4.92857
2023-05-14T08:22:24.501Z,4.85714
2023-05-14T08:23:24.527Z,4.92857
2023-05-14T08:24:24.555Z,4.5
2023-05-14T08:25:24.579Z,5.21429
2023-05-14T08:26:24.601Z,5.14286
2023-05-14T08:27:24.632Z,5.21429
2023-05-14T08:28:24.638Z,4.85714
2023-05-14T08:29:24.653Z,4.85714
2023-05-14T08:30:24.921Z,4.92857
2023-05-14T08:31:24.747Z,4.5
2023-05-14T08:32:24.711Z,5.35714
2023-05-14T08:33:24.743Z,5.14286
2023-05-14T08:34:24.767Z,4.85714
2023-05-14T08:35:24.770Z,4.71429
2023-05-14T08:36:24.773Z,4.92857
2023-05-14T08:37:24.784Z,4.64286
2023-05-14T08:38:24.789Z,4.71429
2023-05-14T08:39:24.825Z,4.85714
2023-05-14T08:40:25.078Z,4.85714
2023-05-14T08:41:24.868Z,4.64286
2023-05-14T08:42:24.903Z,4.64286
2023-05-14T08:43:24.929Z,4.71429
2023-05-14T08:44:24.969Z,4.5
2023-05-14T08:45:24.989Z,4.21429
2023-05-14T08:46:25.032Z,4.64286
2023-05-14T08:47:25.085Z,4.64286
2023-05-14T08:48:25.134Z,4.64286
2023-05-14T08:49:25.103Z,4.71429
2023-05-14T08:50:25.492Z,4.5
2023-05-14T08:51:25.137Z,4.5
2023-05-14T08:52:25.160Z,4.21429
2023-05-14T08:53:25.185Z,4.64286
2023-05-14T08:54:25.211Z,4.42857
2023-05-14T08:55:25.226Z,4.64286
2023-05-14T08:56:25.240Z,4.85714
2023-05-14T08:57:25.269Z,4.85714
2023-05-14T08:58:25.302Z,4.5
2023-05-14T08:59:25.334Z,4.5
2023-05-14T09:00:25.802Z,4.71429
2023-05-14T09:01:25.399Z,5
2023-05-14T09:02:25.475Z,4.35714
2023-05-14T09:03:25.419Z,4.5
2023-05-14T09:04:25.448Z,4.85714
2023-05-14T09:05:25.426Z,4.42857
2023-05-14T09:06:25.442Z,4.64286
2023-05-14T09:07:25.452Z,4.5
2023-05-14T09:08:25.460Z,4.5
2023-05-14T09:09:25.475Z,4.64286
2023-05-14T09:10:25.797Z,4.71429
2023-05-14T09:11:25.548Z,4.71429
2023-05-14T09:12:25.558Z,4.42857
2023-05-14T09:13:28.067Z,4.71429
2023-05-14T09:14:25.600Z,4.85714
2023-05-14T09:15:25.622Z,4.64286
2023-05-14T09:16:25.694Z,4.42857
2023-05-14T09:17:25.705Z,4.42857
2023-05-14T09:18:25.733Z,4.71429
2023-05-14T09:19:25.719Z,4.5
2023-05-14T09:20:26.213Z,5.14286
2023-05-14T09:21:25.771Z,4.21429
2023-05-14T09:22:25.794Z,4.21429
2023-05-14T09:23:25.810Z,4.42857
2023-05-14T09:24:25.843Z,5
2023-05-14T09:25:25.865Z,4.5
2023-05-14T09:26:25.885Z,4.85714
2023-05-14T09:27:25.930Z,5
2023-05-14T09:28:25.946Z,4.35714
2023-05-14T09:29:25.976Z,4
2023-05-14T09:30:26.168Z,4.42857
2023-05-14T09:31:26.029Z,4.21429
2023-05-14T09:32:26.023Z,4.5
2023-05-14T09:33:26.043Z,4.35714
2023-05-14T09:34:26.076Z,4.35714
2023-05-14T09:35:26.086Z,4.21429
2023-05-14T09:36:26.094Z,4.21429
2023-05-14T09:37:26.121Z,4.42857
2023-05-14T09:38:26.115Z,4.42857
2023-05-14T09:39:26.127Z,4.42857
2023-05-14T09:40:26.316Z,4.64286
2023-05-14T09:41:26.178Z,4.35714
2023-05-14T09:42:26.203Z,4.14286
2023-05-14T09:43:26.231Z,4.64286
2023-05-14T09:44:26.271Z,4.64286
2023-05-14T09:45:26.289Z,3.92857
2023-05-14T09:46:26.307Z,4.35714
2023-05-14T09:47:26.447Z,4.14286
2023-05-14T09:48:26.420Z,4.5
2023-05-14T09:49:26.393Z,4.42857
2023-05-14T09:50:26.699Z,5.42857
2023-05-14T09:51:26.425Z,5.21429
2023-05-14T09:52:26.448Z,4.21429
2023-05-14T09:53:26.479Z,4.71429
2023-05-14T09:54:26.494Z,4.5
2023-05-14T09:55:26.516Z,4
2023-05-14T09:56:26.535Z,4.42857
2023-05-14T09:57:26.556Z,4.21429
2023-05-14T09:58:26.592Z,4.21429
2023-05-14T09:59:26.595Z,4.5
2023-05-14T10:00:26.747Z,4.35714
2023-05-14T10:01:26.671Z,4
2023-05-14T10:02:26.690Z,4.42857
2023-05-14T10:03:26.674Z,4.92857
2023-05-14T10:04:26.728Z,4.64286
2023-05-14T10:05:26.711Z,4.85714
2023-05-14T10:06:26.708Z,4.85714
2023-05-14T10:07:26.721Z,4.21429
2023-05-14T10:08:26.751Z,4.42857
2023-05-14T10:09:26.770Z,4.42857
2023-05-14T10:10:27.351Z,4.92857
2023-05-14T10:11:26.836Z,5.85714
2023-05-14T10:12:26.866Z,4.71429
2023-05-14T10:13:26.886Z,4.42857
2023-05-14T10:14:46.289Z,4.42857
2023-05-14T10:15:46.298Z,4.42857
2023-05-14T10:16:46.327Z,4.5
2023-05-14T10:17:46.389Z,4.64286
2023-05-14T10:18:46.403Z,4.64286
2023-05-14T10:19:46.319Z,4.5
2023-05-14T10:20:46.334Z,4.42857
2023-05-14T10:21:15.131Z,4.42857
2023-05-14T10:22:15.139Z,4.35714
2023-05-14T10:23:15.178Z,4.5
2023-05-14T10:24:15.185Z,4.71429
2023-05-14T10:25:15.188Z,4.35714
2023-05-14T10:26:15.179Z,4.5
2023-05-14T10:27:15.199Z,4.35714
2023-05-14T10:28:15.185Z,4.64286
2023-05-14T10:29:15.212Z,4.21429
2023-05-14T10:30:15.230Z,4.71429
2023-05-14T10:31:15.241Z,4.42857
2023-05-14T10:32:15.236Z,4.35714
2023-05-14T10:33:15.330Z,4.21429
2023-05-14T10:34:15.255Z,4.85714
2023-05-14T10:35:15.297Z,4.5
2023-05-14T10:36:15.298Z,4.71429
2023-05-14T10:37:15.303Z,4.71429
2023-05-14T10:38:15.320Z,4.92857
2023-05-14T10:39:15.346Z,4.71429
2023-05-14T10:40:15.364Z,4.71429
2023-05-14T10:41:15.445Z,4.35714
2023-05-14T10:42:15.397Z,4.5
2023-05-14T10:43:15.415Z,4.92857
2023-05-14T10:44:15.452Z,4.64286
2023-05-14T10:45:15.472Z,4.5
2023-05-14T10:46:15.504Z,4.64286
2023-05-14T10:47:15.485Z,4.5
2023-05-14T10:48:15.573Z,4.5
2023-05-14T10:49:20.645Z,4.21429
2023-05-14T10:50:15.544Z,4.5
2023-05-14T10:51:15.561Z,4.85714
2023-05-14T10:52:15.529Z,4.85714
2023-05-14T10:53:15.548Z,4.5
2023-05-14T10:54:15.536Z,4.71429
2023-05-14T10:55:15.568Z,4.92857
2023-05-14T10:56:15.582Z,4.85714
2023-05-14T10:57:15.561Z,4.71429
2023-05-14T10:58:15.576Z,4.5
2023-05-14T10:59:15.593Z,4.64286
2023-05-14T11:00:15.640Z,4.85714
2023-05-14T11:01:15.652Z,4.5
2023-05-14T11:02:15.701Z,4.64286
2023-05-14T11:03:15.769Z,4.85714
2023-05-14T11:04:15.739Z,4.5
2023-05-14T11:05:16.116Z,4.64286
2023-05-14T11:06:15.813Z,4.5
2023-05-14T11:07:15.763Z,4.64286
2023-05-14T11:08:15.812Z,4.42857
2023-05-14T11:09:15.822Z,4.64286
2023-05-14T11:10:15.848Z,4.64286
2023-05-14T11:11:15.862Z,4.5
2023-05-14T11:12:15.893Z,4.5
2023-05-14T11:13:15.907Z,4.64286
2023-05-14T11:14:15.906Z,4.71429
2023-05-14T11:15:15.930Z,5.35714
2023-05-14T11:17:15.977Z,4.85714
2023-05-14T11:18:16.031Z,5
2023-05-14T11:19:16.046Z,4.92857
2023-05-14T11:20:16.013Z,5.14286
2023-05-14T11:21:16.059Z,5.14286
2023-05-14T11:22:16.040Z,5
2023-05-14T11:23:16.064Z,4.71429
2023-05-14T11:24:16.087Z,5.42857
2023-05-14T11:25:16.098Z,5.21429
2023-05-14T11:26:16.335Z,4.85714
2023-05-14T11:27:16.110Z,5.85714
2023-05-14T11:28:16.144Z,5.42857
2023-05-14T11:29:16.164Z,5
2023-05-14T11:30:16.267Z,5.14286
2023-05-14T11:31:16.234Z,4.92857
2023-05-14T11:32:16.226Z,5.35714
2023-05-14T11:33:16.251Z,4.71429
2023-05-14T11:34:16.243Z,4.85714
2023-05-14T11:35:16.247Z,4.64286
2023-05-14T11:36:16.273Z,4.71429
2023-05-14T11:37:16.283Z,4.64286
2023-05-14T11:38:16.293Z,5.14286
2023-05-14T11:39:16.304Z,5
2023-05-14T11:40:16.360Z,4.64286
2023-05-14T11:41:16.302Z,4.85714
2023-05-14T11:42:16.314Z,4.42857
2023-05-14T11:43:16.324Z,4.71429
2023-05-14T11:44:16.367Z,4.85714
2023-05-14T11:45:16.381Z,4.85714
2023-05-14T11:46:16.429Z,4.64286
2023-05-14T11:47:16.425Z,4.92857
2023-05-14T11:48:16.457Z,4.71429
2023-05-14T11:49:16.499Z,5.35714
2023-05-14T11:50:16.584Z,4.71429
2023-05-14T11:51:16.561Z,4.64286
2023-05-14T11:52:16.572Z,4.85714
2023-05-14T11:53:16.581Z,4.42857
2023-05-14T11:54:16.620Z,5.14286
2023-05-14T11:55:16.662Z,4.42857
2023-05-14T11:56:16.680Z,4.85714
2023-05-14T11:57:16.701Z,4.64286
2023-05-14T11:58:16.703Z,4.85714
2023-05-14T11:59:16.723Z,4.92857
2023-05-14T12:00:16.926Z,4.64286
2023-05-14T12:01:16.782Z,5
2023-05-14T12:02:16.834Z,5.21429
2023-05-14T12:03:16.962Z,4.92857
2023-05-14T12:04:16.845Z,4.92857
2023-05-14T12:05:16.833Z,4.35714
2023-05-14T12:06:16.850Z,5
2023-05-14T12:07:16.882Z,5.21429
2023-05-14T12:08:16.867Z,4.71429
2023-05-14T12:09:16.875Z,4.5
2023-05-14T12:10:16.917Z,4.85714
2023-05-14T12:11:16.934Z,4.71429
2023-05-14T12:12:16.956Z,4.85714
2023-05-14T12:13:16.995Z,4.92857
2023-05-14T12:14:17.036Z,4.5
2023-05-14T12:15:17.040Z,5.35714
2023-05-14T12:16:17.164Z,4.85714
2023-05-14T12:17:17.109Z,4.92857
2023-05-14T12:18:24.159Z,4.64286
2023-05-14T12:19:17.219Z,4.92857
2023-05-14T12:20:17.203Z,4.85714
2023-05-14T12:21:17.246Z,5.21429
2023-05-14T12:22:17.215Z,4.85714
2023-05-14T12:23:17.240Z,4.92857
2023-05-14T12:24:17.246Z,4.92857